sensor_id;sensor_type;location;lat;lon;timestamp;pressure;altitude;pressure_sealevel;temperature;humidity
30819;BME280;17546;42.674;23.284;2024-03-23T00:53:28;94738.06;;;13.53;34.55
30819;BME280;17546;42.674;23.284;2024-03-23T00:55:53;94776.31;;;13.82;34.07
30819;BME280;17546;42.674;23.284;2024-03-23T00:58:19;94749.66;;;13.57;34.45
30819;BME280;17546;42.674;23.284;2024-03-23T01:00:45;94754.06;;;13.82;34.10
30819;BME280;17546;42.674;23.284;2024-03-23T01:03:10;94771.53;;;14.13;33.94
30819;BME280;17546;42.674;23.284;2024-03-23T01:05:36;94741.38;;;13.81;33.85
30819;BME280;17546;42.674;23.284;2024-03-23T01:08:01;94742.91;;;13.82;33.77
30819;BME280;17546;42.674;23.284;2024-03-23T01:10:27;94756.59;;;13.80;34.11
30819;BME280;17546;42.674;23.284;2024-03-23T01:12:52;94739.47;;;13.29;34.48
30819;BME280;17546;42.674;23.284;2024-03-23T01:15:18;94765.31;;;13.66;34.47
30819;BME280;17546;42.674;23.284;2024-03-23T01:17:43;94737.13;;;13.39;34.53
30819;BME280;17546;42.674;23.284;2024-03-23T01:20:09;94742.75;;;13.22;34.99
30819;BME280;17546;42.674;23.284;2024-03-23T01:22:35;94760.63;;;13.79;34.47
30819;BME280;17546;42.674;23.284;2024-03-23T01:25:01;94756.72;;;13.58;34.58
30819;BME280;17546;42.674;23.284;2024-03-23T01:27:26;94754.44;;;13.62;34.37
30819;BME280;17546;42.674;23.284;2024-03-23T01:29:52;94759.63;;;13.82;34.02
30819;BME280;17546;42.674;23.284;2024-03-23T01:32:18;94760.78;;;13.62;34.10
30819;BME280;17546;42.674;23.284;2024-03-23T01:34:44;94746.38;;;13.58;33.94
30819;BME280;17546;42.674;23.284;2024-03-23T01:37:09;94748.09;;;13.67;33.73
30819;BME280;17546;42.674;23.284;2024-03-23T01:39:35;94748.88;;;13.62;33.77
30819;BME280;17546;42.674;23.284;2024-03-23T01:42:00;94767.16;;;13.88;33.17
30819;BME280;17546;42.674;23.284;2024-03-23T01:44:26;94752.94;;;13.61;32.97
30819;BME280;17546;42.674;23.284;2024-03-23T01:46:51;94750.06;;;13.36;33.34
30819;BME280;17546;42.674;23.284;2024-03-23T01:49:17;94739.50;;;13.18;33.28
30819;BME280;17546;42.674;23.284;2024-03-23T01:51:43;94740.13;;;13.47;32.85
30819;BME280;17546;42.674;23.284;2024-03-23T01:54:10;94751.66;;;13.62;32.40
30819;BME280;17546;42.674;23.284;2024-03-23T01:56:35;94747.63;;;13.57;32.70
30819;BME280;17546;42.674;23.284;2024-03-23T01:59:05;94769.88;;;13.63;32.86
30819;BME280;17546;42.674;23.284;2024-03-23T02:01:32;94764.56;;;13.12;33.63
30819;BME280;17546;42.674;23.284;2024-03-23T02:03:58;94761.41;;;12.80;34.27
30819;BME280;17546;42.674;23.284;2024-03-23T02:06:26;94741.69;;;12.78;34.36
30819;BME280;17546;42.674;23.284;2024-03-23T02:08:55;94741.31;;;13.10;34.00
30819;BME280;17546;42.674;23.284;2024-03-23T02:11:21;94730.84;;;12.80;34.50
30819;BME280;17546;42.674;23.284;2024-03-23T02:13:47;94761.03;;;13.12;34.41
30819;BME280;17546;42.674;23.284;2024-03-23T02:16:12;94749.44;;;13.08;34.49
30819;BME280;17546;42.674;23.284;2024-03-23T02:18:41;94763.53;;;13.21;34.51
30819;BME280;17546;42.674;23.284;2024-03-23T02:21:06;94768.78;;;13.24;34.41
30819;BME280;17546;42.674;23.284;2024-03-23T02:23:32;94773.91;;;13.15;34.97
30819;BME280;17546;42.674;23.284;2024-03-23T02:25:57;94753.50;;;12.95;34.91
30819;BME280;17546;42.674;23.284;2024-03-23T02:28:23;94754.81;;;12.89;35.23
30819;BME280;17546;42.674;23.284;2024-03-23T02:30:49;94749.25;;;12.83;35.28
30819;BME280;17546;42.674;23.284;2024-03-23T02:33:15;94764.38;;;12.99;35.01
30819;BME280;17546;42.674;23.284;2024-03-23T02:35:40;94754.81;;;12.89;35.20
30819;BME280;17546;42.674;23.284;2024-03-23T02:38:06;94769.16;;;13.04;35.32
30819;BME280;17546;42.674;23.284;2024-03-23T02:40:31;94762.47;;;12.60;36.00
30819;BME280;17546;42.674;23.284;2024-03-23T02:42:57;94762.47;;;12.60;36.11
30819;BME280;17546;42.674;23.284;2024-03-23T02:45:22;94744.84;;;12.40;36.17
30819;BME280;17546;42.674;23.284;2024-03-23T02:47:48;94756.72;;;12.52;36.22
30819;BME280;17546;42.674;23.284;2024-03-23T02:50:19;94762.75;;;12.56;36.39
30819;BME280;17546;42.674;23.284;2024-03-23T02:52:45;94768.81;;;12.49;36.29
30819;BME280;17546;42.674;23.284;2024-03-23T02:55:11;94763.00;;;12.47;36.48
30819;BME280;17546;42.674;23.284;2024-03-23T02:57:36;94756.66;;;12.64;36.24
30819;BME280;17546;42.674;23.284;2024-03-23T03:00:03;94754.94;;;12.49;36.45
30819;BME280;17546;42.674;23.284;2024-03-23T03:02:28;94751.91;;;12.53;36.23
30819;BME280;17546;42.674;23.284;2024-03-23T03:04:54;94761.50;;;12.57;36.23
30819;BME280;17546;42.674;23.284;2024-03-23T03:07:19;94765.00;;;12.64;36.07
30819;BME280;17546;42.674;23.284;2024-03-23T03:09:45;94770.81;;;12.54;36.34
30819;BME280;17546;42.674;23.284;2024-03-23T03:12:10;94740.53;;;12.45;36.18
30819;BME280;17546;42.674;23.284;2024-03-23T03:14:36;94752.88;;;12.67;36.30
30819;BME280;17546;42.674;23.284;2024-03-23T03:17:01;94761.91;;;12.84;35.97
30819;BME280;17546;42.674;23.284;2024-03-23T03:19:27;94763.94;;;12.84;35.92
30819;BME280;17546;42.674;23.284;2024-03-23T03:21:53;94738.53;;;12.40;36.27
30819;BME280;17546;42.674;23.284;2024-03-23T03:24:18;94766.53;;;12.59;36.17
30819;BME280;17546;42.674;23.284;2024-03-23T03:26:44;94754.16;;;12.54;36.23
30819;BME280;17546;42.674;23.284;2024-03-23T03:29:10;94745.81;;;12.66;36.09
30819;BME280;17546;42.674;23.284;2024-03-23T03:31:37;94754.63;;;12.70;35.92
30819;BME280;17546;42.674;23.284;2024-03-23T03:34:02;94743.31;;;12.45;35.74
30819;BME280;17546;42.674;23.284;2024-03-23T03:36:28;94743.78;;;12.60;36.03
30819;BME280;17546;42.674;23.284;2024-03-23T03:38:54;94734.75;;;12.43;35.93
30819;BME280;17546;42.674;23.284;2024-03-23T03:41:19;94744.38;;;12.31;36.20
30819;BME280;17546;42.674;23.284;2024-03-23T03:43:45;94762.56;;;12.20;36.70
30819;BME280;17546;42.674;23.284;2024-03-23T03:46:10;94772.38;;;12.44;36.35
30819;BME280;17546;42.674;23.284;2024-03-23T03:48:36;94772.41;;;12.33;36.44
30819;BME280;17546;42.674;23.284;2024-03-23T03:51:02;94770.34;;;12.39;36.49
30819;BME280;17546;42.674;23.284;2024-03-23T03:53:28;94764.81;;;12.28;36.42
30819;BME280;17546;42.674;23.284;2024-03-23T03:55:54;94764.75;;;12.61;36.08
30819;BME280;17546;42.674;23.284;2024-03-23T03:58:19;94758.78;;;12.24;36.29
30819;BME280;17546;42.674;23.284;2024-03-23T04:00:45;94744.09;;;12.40;36.22
30819;BME280;17546;42.674;23.284;2024-03-23T04:03:10;94757.47;;;12.47;36.05
30819;BME280;17546;42.674;23.284;2024-03-23T04:05:36;94769.56;;;12.50;36.00
30819;BME280;17546;42.674;23.284;2024-03-23T04:08:01;94740.03;;;12.41;35.83
30819;BME280;17546;42.674;23.284;2024-03-23T04:10:27;94743.31;;;12.45;35.54
30819;BME280;17546;42.674;23.284;2024-03-23T04:12:52;94756.22;;;12.43;35.54
30819;BME280;17546;42.674;23.284;2024-03-23T04:15:19;94759.50;;;12.52;35.67
30819;BME280;17546;42.674;23.284;2024-03-23T04:17:45;94756.72;;;12.41;35.72
30819;BME280;17546;42.674;23.284;2024-03-23T04:20:11;94782.47;;;12.47;36.03
30819;BME280;17546;42.674;23.284;2024-03-23T04:22:39;94782.50;;;12.25;36.68
30819;BME280;17546;42.674;23.284;2024-03-23T04:25:05;94753.22;;;12.24;36.42
30819;BME280;17546;42.674;23.284;2024-03-23T04:27:39;94760.81;;;12.17;36.69
30819;BME280;17546;42.674;23.284;2024-03-23T04:30:05;94775.19;;;12.33;36.37
30819;BME280;17546;42.674;23.284;2024-03-23T04:32:36;94781.72;;;12.30;36.72
30819;BME280;17546;42.674;23.284;2024-03-23T04:35:01;94781.00;;;12.35;36.50
30819;BME280;17546;42.674;23.284;2024-03-23T04:37:28;94783.00;;;12.40;36.33
30819;BME280;17546;42.674;23.284;2024-03-23T04:39:54;94782.50;;;12.36;36.42
30819;BME280;17546;42.674;23.284;2024-03-23T04:42:19;94756.50;;;12.16;36.40
30819;BME280;17546;42.674;23.284;2024-03-23T04:44:45;94766.09;;;12.21;36.37
30819;BME280;17546;42.674;23.284;2024-03-23T04:47:10;94766.09;;;12.21;36.30
30819;BME280;17546;42.674;23.284;2024-03-23T04:49:36;94769.13;;;12.29;36.24
30819;BME280;17546;42.674;23.284;2024-03-23T04:52:04;94790.84;;;12.30;36.68
30819;BME280;17546;42.674;23.284;2024-03-23T04:54:29;94784.00;;;12.26;36.57
30819;BME280;17546;42.674;23.284;2024-03-23T04:56:56;94778.97;;;12.30;36.76
30819;BME280;17546;42.674;23.284;2024-03-23T04:59:21;94773.66;;;12.37;36.37
30819;BME280;17546;42.674;23.284;2024-03-23T05:01:47;94797.63;;;12.46;36.50
30819;BME280;17546;42.674;23.284;2024-03-23T05:04:12;94754.47;;;12.23;36.38
30819;BME280;17546;42.674;23.284;2024-03-23T05:06:38;94765.59;;;12.28;36.43
30819;BME280;17546;42.674;23.284;2024-03-23T05:09:03;94772.66;;;12.29;36.41
30819;BME280;17546;42.674;23.284;2024-03-23T05:11:33;94766.34;;;12.29;36.63
30819;BME280;17546;42.674;23.284;2024-03-23T05:13:59;94789.56;;;12.37;36.81
30819;BME280;17546;42.674;23.284;2024-03-23T05:16:25;94758.31;;;12.08;36.71
30819;BME280;17546;42.674;23.284;2024-03-23T05:18:51;94783.72;;;12.57;36.41
30819;BME280;17546;42.674;23.284;2024-03-23T05:21:17;94786.72;;;12.71;36.15
30819;BME280;17546;42.674;23.284;2024-03-23T05:23:42;94788.25;;;12.66;36.37
30819;BME280;17546;42.674;23.284;2024-03-23T05:26:08;94783.09;;;12.93;35.87
30819;BME280;17546;42.674;23.284;2024-03-23T05:28:34;94776.59;;;12.79;36.02
30819;BME280;17546;42.674;23.284;2024-03-23T05:31:00;94744.97;;;12.82;35.71
30819;BME280;17546;42.674;23.284;2024-03-23T05:33:25;94774.47;;;13.02;35.80
30819;BME280;17546;42.674;23.284;2024-03-23T05:35:58;94762.09;;;12.97;35.96
30819;BME280;17546;42.674;23.284;2024-03-23T05:38:24;94786.28;;;13.14;35.60
30819;BME280;17546;42.674;23.284;2024-03-23T05:40:57;94774.47;;;13.08;35.81
30819;BME280;17546;42.674;23.284;2024-03-23T05:43:23;94786.00;;;13.23;35.69
30819;BME280;17546;42.674;23.284;2024-03-23T05:45:59;94760.06;;;13.03;35.76
30819;BME280;17546;42.674;23.284;2024-03-23T05:48:27;94789.78;;;13.26;35.79
30819;BME280;17546;42.674;23.284;2024-03-23T05:50:53;94760.56;;;13.08;35.96
30819;BME280;17546;42.674;23.284;2024-03-23T05:53:19;94772.63;;;13.16;35.97
30819;BME280;17546;42.674;23.284;2024-03-23T05:55:48;94760.25;;;13.11;36.00
30819;BME280;17546;42.674;23.284;2024-03-23T05:58:15;94779.44;;;13.20;36.04
30819;BME280;17546;42.674;23.284;2024-03-23T06:00:41;94784.00;;;13.18;36.05
30819;BME280;17546;42.674;23.284;2024-03-23T06:03:08;94782.41;;;13.34;35.70
30819;BME280;17546;42.674;23.284;2024-03-23T06:05:34;94785.94;;;13.40;35.81
30819;BME280;17546;42.674;23.284;2024-03-23T06:07:59;94785.69;;;13.43;35.83
30819;BME280;17546;42.674;23.284;2024-03-23T06:10:25;94767.44;;;13.42;35.81
30819;BME280;17546;42.674;23.284;2024-03-23T06:12:50;94761.13;;;13.42;35.55
30819;BME280;17546;42.674;23.284;2024-03-23T06:15:18;94777.97;;;13.61;35.46
30819;BME280;17546;42.674;23.284;2024-03-23T06:17:44;94772.41;;;13.61;35.56
30819;BME280;17546;42.674;23.284;2024-03-23T06:20:10;94772.97;;;13.54;35.46
30819;BME280;17546;42.674;23.284;2024-03-23T06:22:37;94776.69;;;13.15;35.82
30819;BME280;17546;42.674;23.284;2024-03-23T06:25:03;94770.91;;;13.07;36.21
30819;BME280;17546;42.674;23.284;2024-03-23T06:27:28;94775.09;;;13.36;35.49
30819;BME280;17546;42.674;23.284;2024-03-23T06:29:54;94769.94;;;13.52;35.48
30819;BME280;17546;42.674;23.284;2024-03-23T06:32:20;94748.22;;;13.44;35.56
30819;BME280;17546;42.674;23.284;2024-03-23T06:34:46;94738.28;;;13.55;35.17
30819;BME280;17546;42.674;23.284;2024-03-23T06:37:12;94759.91;;;13.73;35.20
30819;BME280;17546;42.674;23.284;2024-03-23T06:39:38;94771.28;;;13.75;35.11
30819;BME280;17546;42.674;23.284;2024-03-23T06:42:04;94747.53;;;13.74;34.94
30819;BME280;17546;42.674;23.284;2024-03-23T06:44:30;94750.22;;;13.85;34.74
30819;BME280;17546;42.674;23.284;2024-03-23T06:46:56;94757.00;;;13.90;34.68
30819;BME280;17546;42.674;23.284;2024-03-23T06:49:23;94761.50;;;13.99;34.66
30819;BME280;17546;42.674;23.284;2024-03-23T06:51:49;94750.34;;;14.04;34.73
30819;BME280;17546;42.674;23.284;2024-03-23T06:54:16;94775.22;;;14.21;34.28
30819;BME280;17546;42.674;23.284;2024-03-23T06:56:44;94761.41;;;14.10;34.15
30819;BME280;17546;42.674;23.284;2024-03-23T06:59:09;94777.56;;;13.46;34.97
30819;BME280;17546;42.674;23.284;2024-03-23T07:01:35;94778.94;;;13.69;35.08
30819;BME280;17546;42.674;23.284;2024-03-23T07:04:00;94756.16;;;14.01;34.27
30819;BME280;17546;42.674;23.284;2024-03-23T07:06:26;94767.13;;;14.23;34.08
30819;BME280;17546;42.674;23.284;2024-03-23T07:08:54;94756.97;;;13.96;34.60
30819;BME280;17546;42.674;23.284;2024-03-23T07:11:21;94736.03;;;13.89;34.31
30819;BME280;17546;42.674;23.284;2024-03-23T07:13:49;94764.47;;;13.76;34.79
30819;BME280;17546;42.674;23.284;2024-03-23T07:16:15;94724.44;;;13.79;33.95
30819;BME280;17546;42.674;23.284;2024-03-23T07:18:41;94757.91;;;13.74;34.56
30819;BME280;17546;42.674;23.284;2024-03-23T07:21:06;94735.53;;;13.08;35.43
30819;BME280;17546;42.674;23.284;2024-03-23T07:23:32;94735.41;;;12.72;35.83
30819;BME280;17546;42.674;23.284;2024-03-23T07:26:00;94750.91;;;13.09;35.77
30819;BME280;17546;42.674;23.284;2024-03-23T07:28:26;94739.75;;;13.20;35.56
30819;BME280;17546;42.674;23.284;2024-03-23T07:31:05;94748.31;;;13.28;35.46
30819;BME280;17546;42.674;23.284;2024-03-23T07:33:32;94748.84;;;13.20;35.60
30819;BME280;17546;42.674;23.284;2024-03-23T07:35:58;94731.63;;;13.69;34.82
30819;BME280;17546;42.674;23.284;2024-03-23T07:38:26;94742.97;;;12.77;35.74
30819;BME280;17546;42.674;23.284;2024-03-23T07:40:52;94726.91;;;13.53;34.61
30819;BME280;17546;42.674;23.284;2024-03-23T07:43:22;94732.13;;;13.68;34.55
30819;BME280;17546;42.674;23.284;2024-03-23T07:45:54;94729.69;;;14.19;34.03
30819;BME280;17546;42.674;23.284;2024-03-23T07:48:21;94730.84;;;14.29;33.82
30819;BME280;17546;42.674;23.284;2024-03-23T07:51:15;94737.72;;;13.98;34.07
30819;BME280;17546;42.674;23.284;2024-03-23T07:53:43;94712.09;;;14.30;33.57
30819;BME280;17546;42.674;23.284;2024-03-23T07:56:10;94733.34;;;14.33;33.68
30819;BME280;17546;42.674;23.284;2024-03-23T07:58:35;94724.84;;;14.19;33.43
30819;BME280;17546;42.674;23.284;2024-03-23T08:01:12;94736.88;;;13.78;34.05
30819;BME280;17546;42.674;23.284;2024-03-23T08:03:40;94711.09;;;13.72;33.80
30819;BME280;17546;42.674;23.284;2024-03-23T08:06:18;94731.19;;;14.20;33.58
30819;BME280;17546;42.674;23.284;2024-03-23T08:08:46;94729.19;;;14.70;33.07
30819;BME280;17546;42.674;23.284;2024-03-23T08:11:12;94700.47;;;14.75;32.83
30819;BME280;17546;42.674;23.284;2024-03-23T08:13:39;94726.28;;;14.56;32.75
30819;BME280;17546;42.674;23.284;2024-03-23T08:16:06;94719.88;;;14.37;33.18
30819;BME280;17546;42.674;23.284;2024-03-23T08:18:32;94702.91;;;14.84;32.54
30819;BME280;17546;42.674;23.284;2024-03-23T08:21:05;94722.31;;;15.33;32.17
30819;BME280;17546;42.674;23.284;2024-03-23T08:23:34;94727.88;;;14.95;32.98
30819;BME280;17546;42.674;23.284;2024-03-23T08:26:10;94708.25;;;13.78;34.44
30819;BME280;17546;42.674;23.284;2024-03-23T08:28:36;94719.44;;;14.57;33.95
30819;BME280;17546;42.674;23.284;2024-03-23T08:31:08;94723.72;;;15.59;33.15
30819;BME280;17546;42.674;23.284;2024-03-23T08:33:34;94699.22;;;15.65;31.65
30819;BME280;17546;42.674;23.284;2024-03-23T08:36:02;94695.34;;;16.32;31.21
30819;BME280;17546;42.674;23.284;2024-03-23T08:38:28;94701.38;;;16.37;31.06
30819;BME280;17546;42.674;23.284;2024-03-23T08:41:01;94716.22;;;16.98;30.48
30819;BME280;17546;42.674;23.284;2024-03-23T08:43:31;94684.91;;;17.68;29.55
30819;BME280;17546;42.674;23.284;2024-03-23T08:46:08;94687.94;;;18.12;29.01
30819;BME280;17546;42.674;23.284;2024-03-23T08:48:35;94694.94;;;18.48;27.59
30819;BME280;17546;42.674;23.284;2024-03-23T08:51:04;94695.91;;;18.58;27.83
30819;BME280;17546;42.674;23.284;2024-03-23T08:53:30;94692.13;;;18.76;27.14
30819;BME280;17546;42.674;23.284;2024-03-23T08:55:56;94686.00;;;18.57;27.56
30819;BME280;17546;42.674;23.284;2024-03-23T08:58:24;94686.97;;;18.88;27.00
30819;BME280;17546;42.674;23.284;2024-03-23T09:00:52;94688.69;;;19.43;26.69
30819;BME280;17546;42.674;23.284;2024-03-23T09:03:20;94677.25;;;19.49;26.24
30819;BME280;17546;42.674;23.284;2024-03-23T09:05:46;94682.34;;;19.66;26.11
30819;BME280;17546;42.674;23.284;2024-03-23T09:08:12;94654.31;;;20.19;25.80
30819;BME280;17546;42.674;23.284;2024-03-23T09:10:41;94664.97;;;20.67;25.41
30819;BME280;17546;42.674;23.284;2024-03-23T09:13:06;94670.63;;;21.15;25.09
30819;BME280;17546;42.674;23.284;2024-03-23T09:25:53;94649.69;;;21.74;24.20
30819;BME280;17546;42.674;23.284;2024-03-23T09:28:18;94636.97;;;22.16;23.80
30819;BME280;17546;42.674;23.284;2024-03-23T09:30:44;94624.53;;;21.94;23.35
30819;BME280;17546;42.674;23.284;2024-03-23T09:33:10;94628.31;;;22.39;23.69
30819;BME280;17546;42.674;23.284;2024-03-23T09:35:39;94624.44;;;22.52;23.17
30819;BME280;17546;42.674;23.284;2024-03-23T09:38:05;94608.69;;;21.15;24.02
30819;BME280;17546;42.674;23.284;2024-03-23T09:40:33;94624.72;;;21.96;23.39
30819;BME280;17546;42.674;23.284;2024-03-23T09:42:59;94616.06;;;22.19;23.61
30819;BME280;17546;42.674;23.284;2024-03-23T09:45:29;94597.97;;;22.47;23.59
30819;BME280;17546;42.674;23.284;2024-03-23T09:47:55;94611.41;;;22.74;22.35
30819;BME280;17546;42.674;23.284;2024-03-23T09:50:21;94600.69;;;23.07;22.12
30819;BME280;17546;42.674;23.284;2024-03-23T09:52:46;94604.00;;;22.43;23.01
30819;BME280;17546;42.674;23.284;2024-03-23T09:55:12;94583.81;;;22.99;22.68
30819;BME280;17546;42.674;23.284;2024-03-23T09:57:39;94589.97;;;23.05;22.61
30819;BME280;17546;42.674;23.284;2024-03-23T10:00:05;94602.25;;;23.45;22.67
30819;BME280;17546;42.674;23.284;2024-03-23T10:02:31;94577.38;;;22.72;22.49
30819;BME280;17546;42.674;23.284;2024-03-23T10:04:58;94568.78;;;22.97;22.36
30819;BME280;17546;42.674;23.284;2024-03-23T10:07:23;94556.84;;;23.33;22.04
30819;BME280;17546;42.674;23.284;2024-03-23T10:09:49;94579.41;;;22.88;22.23
30819;BME280;17546;42.674;23.284;2024-03-23T10:12:18;94541.38;;;21.85;22.42
30819;BME280;17546;42.674;23.284;2024-03-23T10:14:44;94555.69;;;22.92;22.27
30819;BME280;17546;42.674;23.284;2024-03-23T10:17:20;94570.84;;;23.68;21.21
30819;BME280;17546;42.674;23.284;2024-03-23T10:19:50;94551.97;;;23.43;20.98
30819;BME280;17546;42.674;23.284;2024-03-23T10:22:23;94533.31;;;24.04;21.23
30819;BME280;17546;42.674;23.284;2024-03-23T10:24:50;94538.75;;;23.83;20.52
30819;BME280;17546;42.674;23.284;2024-03-23T10:27:17;94529.59;;;23.28;21.10
30819;BME280;17546;42.674;23.284;2024-03-23T10:29:44;94551.25;;;24.46;21.00
30819;BME280;17546;42.674;23.284;2024-03-23T10:32:14;94553.41;;;23.62;20.91
30819;BME280;17546;42.674;23.284;2024-03-23T10:34:40;94529.00;;;22.40;21.70
30819;BME280;17546;42.674;23.284;2024-03-23T10:37:07;94508.25;;;22.90;21.38
30819;BME280;17546;42.674;23.284;2024-03-23T10:39:37;94506.72;;;21.67;22.18
30819;BME280;17546;42.674;23.284;2024-03-23T10:42:04;94527.13;;;23.42;21.32
30819;BME280;17546;42.674;23.284;2024-03-23T10:44:30;94525.84;;;23.25;20.78
30819;BME280;17546;42.674;23.284;2024-03-23T10:47:00;94510.94;;;23.89;20.99
30819;BME280;17546;42.674;23.284;2024-03-23T10:49:31;94510.41;;;24.20;20.19
30819;BME280;17546;42.674;23.284;2024-03-23T10:51:59;94507.72;;;24.12;20.35
30819;BME280;17546;42.674;23.284;2024-03-23T10:54:25;94494.50;;;24.53;20.49
30819;BME280;17546;42.674;23.284;2024-03-23T10:57:03;94490.28;;;24.84;19.93
30819;BME280;17546;42.674;23.284;2024-03-23T10:59:29;94480.91;;;24.42;19.60
30819;BME280;17546;42.674;23.284;2024-03-23T11:01:57;94481.03;;;24.05;20.20
30819;BME280;17546;42.674;23.284;2024-03-23T11:04:52;94483.63;;;24.60;19.94
30819;BME280;17546;42.674;23.284;2024-03-23T11:09:50;94467.28;;;24.99;19.87
30819;BME280;17546;42.674;23.284;2024-03-23T11:14:51;94432.22;;;25.14;19.62
30819;BME280;17546;42.674;23.284;2024-03-23T11:17:23;94455.56;;;24.83;19.51
30819;BME280;17546;42.674;23.284;2024-03-23T11:20:03;94423.69;;;25.24;19.11
30819;BME280;17546;42.674;23.284;2024-03-23T11:25:11;94438.00;;;24.36;20.25
30819;BME280;17546;42.674;23.284;2024-03-23T11:27:37;94419.84;;;23.34;20.99
30819;BME280;17546;42.674;23.284;2024-03-23T11:30:29;94427.38;;;22.85;21.61
30819;BME280;17546;42.674;23.284;2024-03-23T11:32:56;94391.69;;;22.80;20.85
30819;BME280;17546;42.674;23.284;2024-03-23T11:35:32;94418.56;;;23.55;21.16
30819;BME280;17546;42.674;23.284;2024-03-23T11:38:08;94413.28;;;22.58;21.48
30819;BME280;17546;42.674;23.284;2024-03-23T11:40:36;94403.09;;;22.72;21.96
30819;BME280;17546;42.674;23.284;2024-03-23T11:43:06;94406.88;;;23.68;20.92
30819;BME280;17546;42.674;23.284;2024-03-23T11:45:37;94398.72;;;24.01;20.17
30819;BME280;17546;42.674;23.284;2024-03-23T11:48:07;94377.38;;;24.49;20.06
30819;BME280;17546;42.674;23.284;2024-03-23T11:50:35;94381.91;;;24.83;20.04
30819;BME280;17546;42.674;23.284;2024-03-23T11:55:52;94366.66;;;24.38;20.25
30819;BME280;17546;42.674;23.284;2024-03-23T11:58:22;94371.44;;;24.54;19.65
30819;BME280;17546;42.674;23.284;2024-03-23T12:01:00;94370.78;;;23.29;18.60
30819;BME280;17546;42.674;23.284;2024-03-23T12:03:30;94362.75;;;24.43;17.98
30819;BME280;17546;42.674;23.284;2024-03-23T12:05:59;94351.94;;;24.20;17.61
30819;BME280;17546;42.674;23.284;2024-03-23T12:08:44;94350.16;;;24.24;17.00
30819;BME280;17546;42.674;23.284;2024-03-23T12:11:13;94345.59;;;24.70;17.31
30819;BME280;17546;42.674;23.284;2024-03-23T12:13:41;94321.81;;;24.44;16.27
30819;BME280;17546;42.674;23.284;2024-03-23T12:16:16;94340.78;;;24.22;16.45
30819;BME280;17546;42.674;23.284;2024-03-23T12:18:43;94327.78;;;24.38;16.10
30819;BME280;17546;42.674;23.284;2024-03-23T12:21:09;94313.34;;;24.34;15.70
30819;BME280;17546;42.674;23.284;2024-03-23T12:23:35;94331.56;;;23.72;16.19
30819;BME280;17546;42.674;23.284;2024-03-23T12:26:00;94321.28;;;23.67;16.04
30819;BME280;17546;42.674;23.284;2024-03-23T12:28:26;94291.97;;;23.34;16.04
30819;BME280;17546;42.674;23.284;2024-03-23T12:30:52;94299.09;;;24.03;16.01
30819;BME280;17546;42.674;23.284;2024-03-23T12:33:19;94304.88;;;24.34;15.20
30819;BME280;17546;42.674;23.284;2024-03-23T12:35:45;94306.97;;;24.24;15.58
30819;BME280;17546;42.674;23.284;2024-03-23T12:38:10;94304.44;;;24.18;15.45
30819;BME280;17546;42.674;23.284;2024-03-23T12:40:36;94273.78;;;24.05;15.49
30819;BME280;17546;42.674;23.284;2024-03-23T12:43:01;94296.22;;;24.32;15.01
30819;BME280;17546;42.674;23.284;2024-03-23T12:45:27;94271.81;;;24.27;15.16
30819;BME280;17546;42.674;23.284;2024-03-23T12:47:52;94292.81;;;24.24;15.77
30819;BME280;17546;42.674;23.284;2024-03-23T12:50:19;94243.53;;;24.17;16.16
30819;BME280;17546;42.674;23.284;2024-03-23T12:52:44;94260.88;;;24.43;15.93
30819;BME280;17546;42.674;23.284;2024-03-23T12:55:10;94278.00;;;24.54;15.86
30819;BME280;17546;42.674;23.284;2024-03-23T12:57:35;94242.97;;;24.19;15.08
30819;BME280;17546;42.674;23.284;2024-03-23T13:00:01;94260.72;;;24.50;15.32
30819;BME280;17546;42.674;23.284;2024-03-23T13:02:28;94264.31;;;24.82;15.21
30819;BME280;17546;42.674;23.284;2024-03-23T13:04:54;94243.78;;;24.31;15.19
30819;BME280;17546;42.674;23.284;2024-03-23T13:07:21;94248.69;;;24.50;15.48
30819;BME280;17546;42.674;23.284;2024-03-23T13:09:49;94255.50;;;24.57;15.69
30819;BME280;17546;42.674;23.284;2024-03-23T13:12:15;94261.78;;;24.45;15.16
30819;BME280;17546;42.674;23.284;2024-03-23T13:14:41;94251.78;;;24.44;15.70
30819;BME280;17546;42.674;23.284;2024-03-23T13:17:07;94229.63;;;24.41;15.76
30819;BME280;17546;42.674;23.284;2024-03-23T13:19:33;94247.84;;;24.28;15.73
30819;BME280;17546;42.674;23.284;2024-03-23T13:21:59;94234.19;;;24.05;15.60
30819;BME280;17546;42.674;23.284;2024-03-23T13:24:26;94246.25;;;24.05;15.78
30819;BME280;17546;42.674;23.284;2024-03-23T13:26:52;94229.28;;;24.05;15.48
30819;BME280;17546;42.674;23.284;2024-03-23T13:29:19;94225.69;;;24.56;14.83
30819;BME280;17546;42.674;23.284;2024-03-23T13:31:45;94243.31;;;24.75;15.03
30819;BME280;17546;42.674;23.284;2024-03-23T13:34:11;94217.19;;;24.56;15.41
30819;BME280;17546;42.674;23.284;2024-03-23T13:36:38;94223.88;;;24.60;15.47
30819;BME280;17546;42.674;23.284;2024-03-23T13:39:03;94208.44;;;24.10;14.97
30819;BME280;17546;42.674;23.284;2024-03-23T13:41:37;94207.31;;;23.65;14.74
30819;BME280;17546;42.674;23.284;2024-03-23T13:44:02;94207.50;;;23.38;15.64
30819;BME280;17546;42.674;23.284;2024-03-23T13:46:28;94206.06;;;24.07;15.63
30819;BME280;17546;42.674;23.284;2024-03-23T13:48:54;94220.41;;;24.30;15.93
30819;BME280;17546;42.674;23.284;2024-03-23T13:51:23;94198.88;;;24.57;15.95
30819;BME280;17546;42.674;23.284;2024-03-23T13:53:55;94209.63;;;24.07;16.26
30819;BME280;17546;42.674;23.284;2024-03-23T13:56:22;94203.06;;;24.46;16.11
30819;BME280;17546;42.674;23.284;2024-03-23T13:58:48;94183.84;;;24.13;15.69
30819;BME280;17546;42.674;23.284;2024-03-23T14:01:14;94193.34;;;24.18;16.01
30819;BME280;17546;42.674;23.284;2024-03-23T14:03:41;94179.06;;;24.16;16.06